createdAt,value
2023-08-09T00:00:33.701Z,16.48
2023-08-09T00:03:01.796Z,17.00
2023-08-09T00:05:29.504Z,16.58
2023-08-09T00:07:56.831Z,16.53
2023-08-09T00:10:24.509Z,16.56
2023-08-09T00:12:52.431Z,16.30
2023-08-09T00:15:19.815Z,16.55
2023-08-09T00:17:47.750Z,16.42
2023-08-09T00:20:16.060Z,16.63
2023-08-09T00:22:44.079Z,16.63
2023-08-09T00:25:14.965Z,16.28
2023-08-09T00:27:43.525Z,16.28
2023-08-09T00:30:11.685Z,16.60
2023-08-09T00:32:40.439Z,16.65
2023-08-09T00:35:08.460Z,16.52
2023-08-09T00:37:36.887Z,16.57
2023-08-09T00:40:13.914Z,16.68
2023-08-09T00:42:42.460Z,16.51
2023-08-09T00:45:10.650Z,16.50
2023-08-09T00:47:38.539Z,16.48
2023-08-09T00:50:06.620Z,16.34
2023-08-09T00:52:34.438Z,15.99
2023-08-09T00:55:02.324Z,15.73
2023-08-09T00:57:31.503Z,15.87
2023-08-09T00:59:59.526Z,15.86
2023-08-09T01:02:27.218Z,16.11
2023-08-09T01:04:54.827Z,16.10
2023-08-09T01:07:32.561Z,16.04
2023-08-09T01:10:16.744Z,16.33
2023-08-09T01:12:51.348Z,16.54
2023-08-09T01:15:21.089Z,16.29
2023-08-09T01:17:50.019Z,15.91
2023-08-09T01:20:18.360Z,16.15
2023-08-09T01:22:52.035Z,16.06
2023-08-09T01:25:20.086Z,15.85
2023-08-09T01:27:50.130Z,15.90
2023-08-09T01:30:17.621Z,16.20
2023-08-09T01:32:45.425Z,15.82
2023-08-09T01:35:13.125Z,15.48
2023-08-09T01:37:48.357Z,16.00
2023-08-09T01:40:17.300Z,16.13
2023-08-09T01:42:44.990Z,15.81
2023-08-09T01:45:13.409Z,16.08
2023-08-09T01:47:43.008Z,16.33
2023-08-09T01:50:22.019Z,15.88
2023-08-09T01:52:50.179Z,15.81
2023-08-09T01:55:19.329Z,15.83
2023-08-09T01:57:48.149Z,15.99
2023-08-09T02:00:20.515Z,16.35
2023-08-09T02:02:49.830Z,16.15
2023-08-09T02:05:17.893Z,15.84
2023-08-09T02:07:45.355Z,15.89
2023-08-09T02:10:13.558Z,15.99
2023-08-09T02:12:41.728Z,16.23
2023-08-09T02:15:09.906Z,15.89
2023-08-09T02:17:37.926Z,16.00
2023-08-09T02:20:08.048Z,16.03
2023-08-09T02:22:38.820Z,15.32
2023-08-09T02:25:08.293Z,15.59
2023-08-09T02:27:35.841Z,15.35
2023-08-09T02:30:04.684Z,15.40
2023-08-09T02:32:35.259Z,15.86
2023-08-09T02:35:03.865Z,16.14
2023-08-09T02:37:31.843Z,15.59
2023-08-09T02:40:00.475Z,15.46
2023-08-09T02:42:28.011Z,15.52
2023-08-09T02:44:55.774Z,15.65
2023-08-09T02:47:23.335Z,15.70
2023-08-09T02:49:51.307Z,15.65
2023-08-09T02:52:20.466Z,15.63
2023-08-09T02:54:48.872Z,15.25
2023-08-09T02:57:16.624Z,15.57
2023-08-09T02:59:44.418Z,15.05
2023-08-09T03:02:11.906Z,15.30
2023-08-09T03:04:39.561Z,15.08
2023-08-09T03:07:07.261Z,15.14
2023-08-09T03:09:36.038Z,15.29
2023-08-09T03:12:03.883Z,15.26
2023-08-09T03:14:31.655Z,15.47
2023-08-09T03:16:59.143Z,15.68
2023-08-09T03:19:27.069Z,15.58
2023-08-09T03:21:54.782Z,15.59
2023-08-09T03:24:22.287Z,15.45
2023-08-09T03:26:49.863Z,15.68
2023-08-09T03:29:17.741Z,15.38
2023-08-09T03:31:46.050Z,15.28
2023-08-09T03:34:13.739Z,15.30
2023-08-09T03:36:41.510Z,15.36
2023-08-09T03:39:09.283Z,15.63
2023-08-09T03:41:36.726Z,15.52
2023-08-09T03:44:05.354Z,15.52
2023-08-09T03:46:33.024Z,15.51
2023-08-09T03:49:02.256Z,15.14
2023-08-09T03:51:30.845Z,15.37
2023-08-09T03:53:58.532Z,15.26
2023-08-09T03:56:26.080Z,15.52
2023-08-09T03:58:53.871Z,15.48
2023-08-09T04:01:21.532Z,15.36
2023-08-09T04:03:49.378Z,15.90
2023-08-09T04:06:16.809Z,16.28
2023-08-09T04:08:45.242Z,16.53
2023-08-09T04:11:13.055Z,16.71
2023-08-09T04:13:42.455Z,16.25
2023-08-09T04:16:10.902Z,15.77
2023-08-09T04:18:39.197Z,16.03
2023-08-09T04:21:08.024Z,16.33
2023-08-09T04:23:35.503Z,16.38
2023-08-09T04:26:04.674Z,16.30
2023-08-09T04:28:32.193Z,16.16
2023-08-09T04:30:59.629Z,16.36
2023-08-09T04:33:28.185Z,16.24
2023-08-09T04:35:55.594Z,16.21
2023-08-09T04:38:23.078Z,16.57
2023-08-09T04:40:50.801Z,16.24
2023-08-09T04:43:18.477Z,16.34
2023-08-09T04:45:45.993Z,16.56
2023-08-09T04:48:18.383Z,16.33
2023-08-09T04:50:45.992Z,16.36
2023-08-09T04:53:13.708Z,16.59
2023-08-09T04:55:41.190Z,16.65
2023-08-09T04:58:09.389Z,16.22
2023-08-09T05:00:37.186Z,16.60
2023-08-09T05:03:06.177Z,16.71
2023-08-09T05:05:33.686Z,17.04
2023-08-09T05:08:01.430Z,17.04
2023-08-09T05:10:28.861Z,17.08
2023-08-09T05:12:56.554Z,16.85
2023-08-09T05:15:24.344Z,17.39
2023-08-09T05:17:51.803Z,17.15
2023-08-09T05:20:19.285Z,17.02
2023-08-09T05:22:47.014Z,17.13
2023-08-09T05:25:14.484Z,17.34
2023-08-09T05:27:41.965Z,17.18
2023-08-09T05:30:10.125Z,17.26
2023-08-09T05:32:37.642Z,17.59
2023-08-09T05:35:05.576Z,17.61
2023-08-09T05:37:33.397Z,17.58
2023-08-09T05:40:00.795Z,17.67
2023-08-09T05:42:28.247Z,17.59
2023-08-09T05:44:56.010Z,17.88
2023-08-09T05:47:23.610Z,17.93
2023-08-09T05:49:51.426Z,17.75
2023-08-09T05:52:19.158Z,17.97
2023-08-09T05:54:49.438Z,17.94
2023-08-09T05:57:17.149Z,17.87
2023-08-09T05:59:44.920Z,18.09
2023-08-09T06:02:12.376Z,18.25
2023-08-09T06:04:40.151Z,18.37
2023-08-09T06:07:08.336Z,18.45
2023-08-09T06:09:35.785Z,18.41
2023-08-09T06:12:06.887Z,18.77
2023-08-09T06:14:35.015Z,19.18
2023-08-09T06:17:03.347Z,19.09
2023-08-09T06:19:31.241Z,19.20
2023-08-09T06:21:58.935Z,19.07
2023-08-09T06:24:26.635Z,19.30
2023-08-09T06:26:55.589Z,19.59
2023-08-09T06:29:23.101Z,19.80
2023-08-09T06:31:51.641Z,19.58
2023-08-09T06:34:19.360Z,19.57
2023-08-09T06:36:46.864Z,19.58
2023-08-09T06:39:14.603Z,19.64
2023-08-09T06:41:42.080Z,19.63
2023-08-09T06:44:09.520Z,19.94
2023-08-09T06:46:38.604Z,20.28
2023-08-09T06:49:06.097Z,20.50
2023-08-09T06:51:33.550Z,20.49
2023-08-09T06:54:01.220Z,20.49
2023-08-09T06:56:28.901Z,20.69
2023-08-09T06:58:56.702Z,20.69
2023-08-09T07:01:24.433Z,20.94
2023-08-09T07:03:52.069Z,21.01
2023-08-09T07:06:19.836Z,21.31
2023-08-09T07:08:47.608Z,21.50
2023-08-09T07:11:15.879Z,21.82
2023-08-09T07:13:43.337Z,21.95
2023-08-09T07:16:11.019Z,21.85
2023-08-09T07:18:38.692Z,22.08
2023-08-09T07:21:06.214Z,22.27
2023-08-09T07:23:47.292Z,22.25
2023-08-09T07:26:21.330Z,22.57
2023-08-09T07:28:49.093Z,22.88
2023-08-09T07:31:21.837Z,22.91
2023-08-09T07:33:50.231Z,23.06
2023-08-09T07:36:18.221Z,23.30
2023-08-09T07:38:45.677Z,23.56
2023-08-09T07:41:13.801Z,23.84
2023-08-09T07:43:41.254Z,24.07
2023-08-09T07:46:08.795Z,24.23
2023-08-09T07:48:36.559Z,24.71
2023-08-09T07:51:04.256Z,24.75
2023-08-09T07:53:31.976Z,24.99
2023-08-09T07:55:59.708Z,25.24
2023-08-09T07:58:27.183Z,25.26
2023-08-09T08:00:54.636Z,25.45
2023-08-09T08:03:22.328Z,25.27
2023-08-09T08:05:51.242Z,25.18
2023-08-09T08:08:21.220Z,25.48
2023-08-09T08:10:49.007Z,25.61
2023-08-09T08:13:16.823Z,25.54
2023-08-09T08:15:44.732Z,25.60
2023-08-09T08:18:12.900Z,25.38
2023-08-09T08:20:40.304Z,25.14
2023-08-09T08:23:07.872Z,25.16
2023-08-09T08:25:35.681Z,25.06
2023-08-09T08:28:03.289Z,24.87
2023-08-09T08:30:30.860Z,25.01
2023-08-09T08:32:58.654Z,24.98
2023-08-09T08:35:34.998Z,24.97
2023-08-09T08:38:03.684Z,24.96
2023-08-09T08:40:32.437Z,25.25
2023-08-09T08:43:00.457Z,25.09
2023-08-09T08:45:28.229Z,25.04
2023-08-09T08:47:55.674Z,25.48
2023-08-09T08:50:26.401Z,25.68
2023-08-09T08:52:54.690Z,25.52
2023-08-09T08:55:23.255Z,25.39
2023-08-09T08:57:50.689Z,25.72
2023-08-09T09:02:49.272Z,25.46
2023-08-09T09:05:17.990Z,25.43
2023-08-09T09:07:47.763Z,25.50
2023-08-09T09:10:15.262Z,25.41
2023-08-09T09:12:43.157Z,25.17
2023-08-09T09:15:11.037Z,25.28
2023-08-09T09:17:43.303Z,25.34
2023-08-09T09:20:40.765Z,25.34
2023-08-09T09:23:09.164Z,25.43
2023-08-09T09:25:36.921Z,25.43
2023-08-09T09:28:04.659Z,25.28
2023-08-09T09:30:33.504Z,25.42
2023-08-09T09:33:04.435Z,25.26
2023-08-09T09:35:33.608Z,25.29
2023-08-09T09:38:05.224Z,25.29
2023-08-09T09:40:36.198Z,25.26
2023-08-09T09:43:05.721Z,25.46
2023-08-09T09:45:34.294Z,25.51
2023-08-09T09:48:03.320Z,25.74
2023-08-09T09:50:33.111Z,25.86
2023-08-09T09:53:01.075Z,25.99
2023-08-09T09:55:30.128Z,26.07
2023-08-09T09:57:59.290Z,26.23
2023-08-09T10:00:28.902Z,26.14
2023-08-09T10:02:57.852Z,26.09
2023-08-09T10:05:44.722Z,26.29
2023-08-09T10:08:15.295Z,26.63
2023-08-09T10:10:44.953Z,26.57
2023-08-09T10:13:17.277Z,26.54
2023-08-09T10:15:48.501Z,26.63
2023-08-09T10:18:30.384Z,26.84
2023-08-09T10:20:59.751Z,26.49
2023-08-09T10:23:30.218Z,26.82
2023-08-09T10:25:58.141Z,27.02
2023-08-09T10:28:45.675Z,26.84
2023-08-09T10:31:19.278Z,27.40
2023-08-09T10:34:11.692Z,26.89
2023-08-09T10:36:39.476Z,26.97
2023-08-09T10:39:15.754Z,27.24
2023-08-09T10:42:06.467Z,27.15
2023-08-09T10:44:34.296Z,27.13
2023-08-09T10:47:04.922Z,26.83
2023-08-09T10:49:45.965Z,26.82
2023-08-09T10:52:19.239Z,26.47
2023-08-09T10:55:27.550Z,26.40
2023-08-09T10:57:57.219Z,26.80
2023-08-09T11:00:25.939Z,26.77
2023-08-09T11:02:58.174Z,26.84
2023-08-09T11:05:28.563Z,26.71
2023-08-09T11:07:58.202Z,26.82
2023-08-09T11:10:38.878Z,26.85
2023-08-09T11:13:10.589Z,27.05
2023-08-09T11:15:39.182Z,27.13
2023-08-09T11:18:07.451Z,27.15
2023-08-09T11:20:35.592Z,26.92
2023-08-09T11:23:04.807Z,26.19
2023-08-09T11:25:33.474Z,26.54
2023-08-09T11:28:04.974Z,26.86
2023-08-09T11:30:33.953Z,26.97
2023-08-09T11:33:06.713Z,26.74
2023-08-09T11:35:46.487Z,26.86
2023-08-09T11:38:16.577Z,27.00
2023-08-09T11:40:52.925Z,26.82
2023-08-09T11:43:21.877Z,27.08
2023-08-09T11:45:56.529Z,26.71
2023-08-09T11:48:32.804Z,26.95
2023-08-09T11:51:23.850Z,26.95
2023-08-09T11:53:51.976Z,26.68
2023-08-09T11:56:21.391Z,26.77
2023-08-09T11:58:57.014Z,26.59
2023-08-09T12:01:29.482Z,26.68
2023-08-09T12:03:59.511Z,26.79
2023-08-09T12:06:43.844Z,26.64
2023-08-09T12:09:27.920Z,26.61
2023-08-09T12:11:55.653Z,26.39
2023-08-09T12:14:23.789Z,26.84
2023-08-09T12:16:51.333Z,27.19
2023-08-09T12:19:18.794Z,27.07
2023-08-09T12:21:46.550Z,26.80
2023-08-09T12:24:15.002Z,26.79
2023-08-09T12:26:43.040Z,26.61
2023-08-09T12:29:11.033Z,26.80
2023-08-09T12:31:39.406Z,27.10
2023-08-09T12:34:09.363Z,26.80
2023-08-09T12:36:37.115Z,26.93
2023-08-09T12:39:05.162Z,26.75
2023-08-09T12:41:32.586Z,27.14
2023-08-09T12:44:00.262Z,27.01
2023-08-09T12:46:28.052Z,27.00
2023-08-09T12:48:55.582Z,27.31
2023-08-09T12:51:23.568Z,27.42
2023-08-09T12:53:51.050Z,27.29
2023-08-09T12:56:18.775Z,26.96
2023-08-09T12:58:46.588Z,27.11
2023-08-09T13:01:15.469Z,27.06
2023-08-09T13:03:42.989Z,27.05
2023-08-09T13:06:11.528Z,27.49
2023-08-09T13:08:38.986Z,27.24
2023-08-09T13:11:06.612Z,27.50
2023-08-09T13:13:34.440Z,27.50
2023-08-09T13:16:03.343Z,26.91
2023-08-09T13:18:31.284Z,27.00
2023-08-09T13:20:59.396Z,27.24
2023-08-09T13:23:26.829Z,27.24
2023-08-09T13:25:55.124Z,27.63
2023-08-09T13:28:23.081Z,27.48
2023-08-09T13:30:50.626Z,27.59
2023-08-09T13:33:18.309Z,27.35
2023-08-09T13:35:46.622Z,27.11
2023-08-09T13:38:32.932Z,27.32
2023-08-09T13:41:00.982Z,27.59
2023-08-09T13:43:28.678Z,27.64
2023-08-09T13:45:56.193Z,27.64
2023-08-09T13:48:24.149Z,27.02
2023-08-09T13:50:51.921Z,27.37
2023-08-09T13:53:19.650Z,27.73
2023-08-09T13:55:47.721Z,26.96
2023-08-09T13:58:16.560Z,26.75
2023-08-09T14:00:44.058Z,26.56
2023-08-09T14:03:12.526Z,26.58
2023-08-09T14:05:40.154Z,26.64
2023-08-09T14:08:08.789Z,26.49
2023-08-09T14:10:36.524Z,26.72
2023-08-09T14:13:04.110Z,26.67
2023-08-09T14:15:31.931Z,26.53
2023-08-09T14:18:00.099Z,26.72
2023-08-09T14:20:27.845Z,26.71
2023-08-09T14:22:55.431Z,26.92
2023-08-09T14:25:27.236Z,26.78
2023-08-09T14:27:54.794Z,26.68
2023-08-09T14:30:22.577Z,27.00
2023-08-09T14:32:51.015Z,27.00
2023-08-09T14:35:21.338Z,27.05
2023-08-09T14:37:49.310Z,27.23
2023-08-09T14:40:17.219Z,27.33
2023-08-09T14:42:45.169Z,27.20
2023-08-09T14:45:13.237Z,27.05
2023-08-09T14:47:41.696Z,27.49
2023-08-09T14:50:10.101Z,27.39
2023-08-09T14:52:38.434Z,27.75
2023-08-09T14:55:08.985Z,27.98
2023-08-09T14:57:37.756Z,28.06
2023-08-09T15:00:11.052Z,27.57
2023-08-09T15:02:41.121Z,28.14
2023-08-09T15:05:10.601Z,27.95
2023-08-09T15:07:38.318Z,28.11
2023-08-09T15:10:07.341Z,28.08
2023-08-09T15:12:35.992Z,27.77
2023-08-09T15:15:05.651Z,28.09
2023-08-09T15:17:34.809Z,27.91
2023-08-09T15:20:03.529Z,28.06
2023-08-09T15:22:31.140Z,27.76
2023-08-09T15:25:00.945Z,28.03
2023-08-09T15:27:28.905Z,27.75
2023-08-09T15:29:57.363Z,27.34
2023-08-09T15:32:25.268Z,27.12
2023-08-09T15:34:53.151Z,27.12
2023-08-09T15:37:20.796Z,26.81
2023-08-09T15:39:48.713Z,26.74
2023-08-09T15:42:18.765Z,27.12
2023-08-09T15:44:49.410Z,26.86
2023-08-09T15:47:19.772Z,26.60
2023-08-09T15:49:48.925Z,26.39
2023-08-09T15:52:19.465Z,26.46
2023-08-09T15:54:47.319Z,26.31
2023-08-09T15:57:15.567Z,26.32
2023-08-09T15:59:46.790Z,26.18
2023-08-09T16:02:15.388Z,26.33
2023-08-09T16:04:43.825Z,26.18
2023-08-09T16:07:13.141Z,25.86
2023-08-09T16:09:41.334Z,26.01
2023-08-09T16:12:11.913Z,25.86
2023-08-09T16:14:40.398Z,26.11
2023-08-09T16:17:09.117Z,25.82
2023-08-09T16:19:37.952Z,25.70
2023-08-09T16:22:06.165Z,25.63
2023-08-09T16:24:33.949Z,25.43
2023-08-09T16:27:02.529Z,25.54
2023-08-09T16:29:30.275Z,25.45
2023-08-09T16:31:57.804Z,25.30
2023-08-09T16:34:25.782Z,25.30
2023-08-09T16:36:53.443Z,25.34
2023-08-09T16:39:21.431Z,25.14
2023-08-09T16:41:49.192Z,25.12
2023-08-09T16:44:16.675Z,25.04
2023-08-09T16:46:44.414Z,25.20
2023-08-09T16:49:12.378Z,25.23
2023-08-09T16:51:39.922Z,25.47
2023-08-09T16:54:08.102Z,25.70
2023-08-09T16:56:36.677Z,25.58
2023-08-09T16:59:04.577Z,25.30
2023-08-09T17:01:32.483Z,24.72
2023-08-09T17:04:00.491Z,24.60
2023-08-09T17:06:29.018Z,24.69
2023-08-09T17:08:56.741Z,24.74
2023-08-09T17:11:25.224Z,24.66
2023-08-09T17:13:54.451Z,24.32
2023-08-09T17:16:22.273Z,24.13
2023-08-09T17:18:51.310Z,23.89
2023-08-09T17:21:19.565Z,24.09
2023-08-09T17:23:48.217Z,23.93
2023-08-09T17:26:16.376Z,23.71
2023-08-09T17:28:44.348Z,23.66
2023-08-09T17:31:12.798Z,23.77
2023-08-09T17:33:41.605Z,23.25
2023-08-09T17:36:12.652Z,23.52
2023-08-09T17:38:42.639Z,23.29
2023-08-09T17:41:10.754Z,23.51
2023-08-09T17:43:40.385Z,23.25
2023-08-09T17:46:08.583Z,23.47
2023-08-09T17:48:36.789Z,23.22
2023-08-09T17:51:06.661Z,23.51
2023-08-09T17:53:35.905Z,23.03
2023-08-09T17:56:04.828Z,23.10
2023-08-09T17:58:32.549Z,23.14
2023-08-09T18:01:00.879Z,23.12
2023-08-09T18:03:28.821Z,23.04
2023-08-09T18:05:56.940Z,22.96
2023-08-09T18:08:26.506Z,22.86
2023-08-09T18:10:56.874Z,22.92
2023-08-09T18:13:25.328Z,23.02
2023-08-09T18:15:53.288Z,22.80
2023-08-09T18:18:22.296Z,22.81
2023-08-09T18:20:51.710Z,23.32
2023-08-09T18:23:25.912Z,23.04
2023-08-09T18:25:57.431Z,22.79
2023-08-09T18:28:26.631Z,22.80
2023-08-09T18:30:54.354Z,22.74
2023-08-09T18:33:23.378Z,22.74
2023-08-09T18:35:53.599Z,23.08
2023-08-09T18:38:23.363Z,22.76
2023-08-09T18:40:53.434Z,22.93
2023-08-09T18:43:23.152Z,22.83
2023-08-09T18:45:51.557Z,22.60
2023-08-09T18:48:19.902Z,22.43
2023-08-09T18:50:49.310Z,22.35
2023-08-09T18:53:18.785Z,22.35
2023-08-09T18:55:48.244Z,22.44
2023-08-09T18:58:17.240Z,22.44
2023-08-09T19:00:46.327Z,22.58
2023-08-09T19:03:14.617Z,22.40
2023-08-09T19:05:44.077Z,22.59
2023-08-09T19:08:12.732Z,22.54
2023-08-09T19:10:43.159Z,22.28
2023-08-09T19:13:11.684Z,22.58
2023-08-09T19:15:41.272Z,22.57
2023-08-09T19:18:09.409Z,22.32
2023-08-09T19:20:37.761Z,22.43
2023-08-09T19:23:07.542Z,22.29
2023-08-09T19:25:36.246Z,22.11
2023-08-09T19:28:05.879Z,21.90
2023-08-09T19:30:35.712Z,22.24
2023-08-09T19:33:05.092Z,22.09
2023-08-09T19:35:35.436Z,22.16
2023-08-09T19:38:05.554Z,21.95
2023-08-09T19:40:34.098Z,21.71
2023-08-09T19:43:02.906Z,21.88
2023-08-09T19:45:31.424Z,21.91
2023-08-09T19:48:01.490Z,22.21
2023-08-09T19:50:29.913Z,22.25
2023-08-09T19:52:58.093Z,22.08
2023-08-09T19:55:26.442Z,22.07
2023-08-09T19:57:54.760Z,22.13
2023-08-09T20:00:28.715Z,22.27
2023-08-09T20:02:57.352Z,21.92
2023-08-09T20:05:26.104Z,22.01
2023-08-09T20:07:54.955Z,21.64
2023-08-09T20:10:23.372Z,21.50
2023-08-09T20:12:51.592Z,21.69
2023-08-09T20:15:21.176Z,21.57
2023-08-09T20:17:49.480Z,21.79
2023-08-09T20:20:24.292Z,21.35
2023-08-09T20:22:54.096Z,21.77
2023-08-09T20:25:22.975Z,21.51
2023-08-09T20:27:52.425Z,21.57
2023-08-09T20:30:20.923Z,21.59
2023-08-09T20:32:49.021Z,21.49
2023-08-09T20:35:17.014Z,21.71
2023-08-09T20:37:44.688Z,21.72
2023-08-09T20:40:13.122Z,21.83
2023-08-09T20:42:42.251Z,21.73
2023-08-09T20:45:11.460Z,21.75
2023-08-09T20:47:41.344Z,21.49
2023-08-09T20:50:09.623Z,21.67
2023-08-09T20:52:39.536Z,21.69
2023-08-09T20:55:08.501Z,21.58
2023-08-09T20:57:36.303Z,21.43
2023-08-09T21:00:05.663Z,21.44
2023-08-09T21:02:33.420Z,21.55
2023-08-09T21:05:00.834Z,21.31
2023-08-09T21:07:28.253Z,21.50
2023-08-09T21:09:56.422Z,21.40
2023-08-09T21:12:23.801Z,21.46
2023-08-09T21:14:51.235Z,21.26
2023-08-09T21:17:18.860Z,21.45
2023-08-09T21:19:46.273Z,21.10
2023-08-09T21:22:15.306Z,21.16
2023-08-09T21:27:31.760Z,21.31
2023-08-09T21:30:00.700Z,21.59
2023-08-09T21:32:28.322Z,21.64
2023-08-09T21:34:55.792Z,21.47
2023-08-09T21:37:23.564Z,21.52
2023-08-09T21:39:51.131Z,21.60
2023-08-09T21:42:18.591Z,21.61
2023-08-09T21:44:46.377Z,21.56
2023-08-09T21:47:13.811Z,21.52
2023-08-09T21:49:44.549Z,21.31
2023-08-09T21:52:12.242Z,21.55
2023-08-09T21:54:39.661Z,21.70
2023-08-09T21:57:07.132Z,21.47
2023-08-09T21:59:34.869Z,21.57
2023-08-09T22:02:17.885Z,21.85
2023-08-09T22:04:54.491Z,21.50
2023-08-09T22:07:21.929Z,21.43
2023-08-09T22:09:49.336Z,20.96
2023-08-09T22:12:17.003Z,21.45
2023-08-09T22:14:44.386Z,21.37
2023-08-09T22:17:11.908Z,21.58
2023-08-09T22:19:39.700Z,21.20
2023-08-09T22:24:37.462Z,21.15
2023-08-09T22:27:05.175Z,21.38
2023-08-09T22:29:32.720Z,21.23
2023-08-09T22:32:00.544Z,21.29
2023-08-09T22:34:28.277Z,21.13
2023-08-09T22:36:56.156Z,21.16
2023-08-09T22:39:23.827Z,21.30
2023-08-09T22:41:51.624Z,21.26
2023-08-09T22:44:19.001Z,21.12
2023-08-09T22:46:46.616Z,21.33
2023-08-09T22:49:14.367Z,21.32
2023-08-09T22:51:43.076Z,21.20
2023-08-09T22:54:10.924Z,21.17
2023-08-09T22:56:38.670Z,21.24
2023-08-09T22:59:06.355Z,21.07
2023-08-09T23:01:34.934Z,20.86
2023-08-09T23:04:03.134Z,20.80
2023-08-09T23:06:30.579Z,21.04
2023-08-09T23:08:58.089Z,20.80
2023-08-09T23:11:26.224Z,21.07
2023-08-09T23:13:53.632Z,20.88
2023-08-09T23:16:21.007Z,20.84
2023-08-09T23:18:48.877Z,20.55
2023-08-09T23:21:16.370Z,20.56
2023-08-09T23:23:43.786Z,21.06
2023-08-09T23:26:12.634Z,20.73
2023-08-09T23:28:40.062Z,20.71
2023-08-09T23:31:07.500Z,20.67
2023-08-09T23:33:35.317Z,20.98
2023-08-09T23:36:03.849Z,21.15
2023-08-09T23:38:31.228Z,21.04
2023-08-09T23:40:58.999Z,20.92
2023-08-09T23:43:26.410Z,20.95
2023-08-09T23:45:53.825Z,20.89
2023-08-09T23:48:21.480Z,20.78
2023-08-09T23:50:49.244Z,20.58
2023-08-09T23:53:16.681Z,20.13
2023-08-09T23:55:44.355Z,20.75
2023-08-09T23:58:11.750Z,20.43
